createdAt,value
2023-10-15T00:01:47.724Z,98513.60
2023-10-15T00:04:24.513Z,98514.80
2023-10-15T00:07:07.227Z,98507.00
2023-10-15T00:09:43.349Z,98513.60
2023-10-15T00:12:20.717Z,98517.80
2023-10-15T00:14:58.075Z,98524.20
2023-10-15T00:17:34.661Z,98536.80
2023-10-15T00:20:18.261Z,98539.80
2023-10-15T00:22:55.436Z,98540.80
2023-10-15T00:25:36.141Z,98539.00
2023-10-15T00:28:13.522Z,98544.60
2023-10-15T00:30:50.096Z,98548.20
2023-10-15T00:33:26.606Z,98535.20
2023-10-15T00:36:05.466Z,98529.40
2023-10-15T00:38:45.030Z,98538.60
2023-10-15T00:41:21.409Z,98531.60
2023-10-15T00:44:00.847Z,98528.20
2023-10-15T00:46:39.235Z,98528.00
2023-10-15T00:49:16.339Z,98527.80
2023-10-15T00:51:53.721Z,98522.80
2023-10-15T00:54:34.724Z,98513.60
2023-10-15T00:57:26.493Z,98514.00
2023-10-15T01:00:09.852Z,98533.80
2023-10-15T01:02:47.718Z,98544.60
2023-10-15T01:05:26.467Z,98551.80
2023-10-15T01:08:05.907Z,98548.20
2023-10-15T01:10:44.243Z,98548.40
2023-10-15T01:13:23.008Z,98550.20
2023-10-15T01:16:04.990Z,98547.60
2023-10-15T01:18:43.700Z,98540.20
2023-10-15T01:21:20.487Z,98543.80
2023-10-15T01:24:06.012Z,98540.40
2023-10-15T01:26:42.574Z,98521.40
2023-10-15T01:29:22.495Z,98512.60
2023-10-15T01:32:04.710Z,98512.20
2023-10-15T01:34:42.615Z,98507.80
2023-10-15T01:37:26.011Z,98496.00
2023-10-15T01:40:22.976Z,98498.60
2023-10-15T01:42:59.484Z,98495.40
2023-10-15T01:45:39.774Z,98495.80
2023-10-15T01:48:25.910Z,98513.00
2023-10-15T01:51:07.852Z,98511.40
2023-10-15T01:53:43.237Z,98507.60
2023-10-15T01:56:23.240Z,98500.40
2023-10-15T01:58:59.901Z,98507.60
2023-10-15T02:01:39.013Z,98512.40
2023-10-15T02:04:18.584Z,98513.40
2023-10-15T02:06:55.029Z,98522.00
2023-10-15T02:09:39.410Z,98524.00
2023-10-15T02:12:19.344Z,98533.20
2023-10-15T02:14:56.002Z,98537.80
2023-10-15T02:17:35.390Z,98515.40
2023-10-15T02:20:27.391Z,98503.00
2023-10-15T02:23:04.892Z,98505.60
2023-10-15T02:25:47.195Z,98510.20
2023-10-15T02:28:27.340Z,98497.00
2023-10-15T02:31:15.905Z,98499.40
2023-10-15T02:33:56.911Z,98508.60
2023-10-15T02:36:33.764Z,98496.60
2023-10-15T02:39:10.445Z,98502.60
2023-10-15T02:41:48.001Z,98521.00
2023-10-15T02:44:24.431Z,98511.80
2023-10-15T02:47:08.758Z,98502.20
2023-10-15T02:49:54.912Z,98509.60
2023-10-15T02:52:46.542Z,98501.80
2023-10-15T02:55:36.891Z,98494.80
2023-10-15T02:58:15.083Z,98489.20
2023-10-15T03:00:53.238Z,98496.20
2023-10-15T03:03:35.992Z,98506.80
2023-10-15T03:06:19.251Z,98487.60
2023-10-15T03:08:57.694Z,98476.60
2023-10-15T03:11:34.332Z,98475.40
2023-10-15T03:14:13.804Z,98510.00
2023-10-15T03:16:50.630Z,98537.20
2023-10-15T03:19:27.583Z,98546.00
2023-10-15T03:22:09.821Z,98540.00
2023-10-15T03:24:46.558Z,98526.20
2023-10-15T03:27:27.659Z,98528.40
2023-10-15T03:30:04.659Z,98551.00
2023-10-15T03:32:42.695Z,98549.00
2023-10-15T03:35:20.059Z,98551.20
2023-10-15T03:38:04.515Z,98559.20
2023-10-15T03:40:44.516Z,98558.40
2023-10-15T03:43:22.832Z,98549.80
2023-10-15T03:46:15.124Z,98548.20
2023-10-15T03:48:54.494Z,98562.80
2023-10-15T03:51:31.735Z,98560.40
2023-10-15T03:54:14.456Z,98533.00
2023-10-15T03:56:52.239Z,98522.80
2023-10-15T03:59:28.437Z,98517.60
2023-10-15T04:02:08.642Z,98534.20
2023-10-15T04:04:48.328Z,98541.80
2023-10-15T04:07:26.771Z,98547.80
2023-10-15T04:10:06.236Z,98524.60
2023-10-15T04:12:44.793Z,98527.60
2023-10-15T04:15:23.791Z,98532.80
2023-10-15T04:18:00.714Z,98546.40
2023-10-15T04:20:41.610Z,98545.20
2023-10-15T04:23:31.623Z,98529.60
2023-10-15T04:26:14.166Z,98552.00
2023-10-15T04:28:54.208Z,98540.60
2023-10-15T04:31:31.365Z,98559.60
2023-10-15T04:34:11.042Z,98567.00
2023-10-15T04:36:47.462Z,98579.60
2023-10-15T04:39:45.534Z,98582.20
2023-10-15T04:42:26.551Z,98584.00
2023-10-15T04:45:03.198Z,98588.40
2023-10-15T04:47:42.814Z,98602.00
2023-10-15T04:50:19.611Z,98601.60
2023-10-15T04:52:55.926Z,98601.60
2023-10-15T04:55:32.351Z,98613.40
2023-10-15T04:58:08.886Z,98610.20
2023-10-15T05:00:49.248Z,98613.00
2023-10-15T05:03:26.362Z,98622.80
2023-10-15T05:06:12.421Z,98622.20
2023-10-15T05:08:49.665Z,98614.20
2023-10-15T05:11:25.991Z,98607.00
2023-10-15T05:14:02.213Z,98606.60
2023-10-15T05:16:38.538Z,98608.40
2023-10-15T05:19:14.798Z,98602.80
2023-10-15T05:21:52.359Z,98605.00
2023-10-15T05:24:31.621Z,98617.80
2023-10-15T05:27:08.141Z,98613.40
2023-10-15T05:29:44.784Z,98612.80
2023-10-15T05:32:21.058Z,98612.20
2023-10-15T05:34:57.461Z,98611.60
2023-10-15T05:37:33.737Z,98603.20
2023-10-15T05:40:14.201Z,98607.00
2023-10-15T05:42:50.829Z,98606.20
2023-10-15T05:45:27.142Z,98606.20
2023-10-15T05:48:03.659Z,98607.60
2023-10-15T05:50:41.098Z,98603.20
2023-10-15T05:53:18.337Z,98601.20
2023-10-15T05:55:54.725Z,98604.80
2023-10-15T05:58:31.542Z,98597.40
2023-10-15T06:01:07.824Z,98603.80
2023-10-15T06:03:44.487Z,98611.40
2023-10-15T06:06:20.661Z,98611.60
2023-10-15T06:08:57.610Z,98621.20
2023-10-15T06:11:33.995Z,98634.60
2023-10-15T06:14:10.469Z,98635.60
2023-10-15T06:16:49.084Z,98636.40
2023-10-15T06:19:25.825Z,98642.40
2023-10-15T06:22:03.951Z,98643.00
2023-10-15T06:24:40.230Z,98643.60
2023-10-15T06:27:16.881Z,98648.80
2023-10-15T06:29:53.451Z,98655.20
2023-10-15T06:32:29.888Z,98659.00
2023-10-15T06:35:08.256Z,98662.00
2023-10-15T06:37:45.252Z,98659.80
2023-10-15T06:40:25.913Z,98667.20
2023-10-15T06:43:05.229Z,98673.00
2023-10-15T06:45:42.793Z,98675.20
2023-10-15T06:48:19.581Z,98670.80
2023-10-15T06:50:58.150Z,98676.00
2023-10-15T06:53:34.600Z,98676.40
2023-10-15T06:56:10.934Z,98675.00
2023-10-15T06:58:47.173Z,98675.40
2023-10-15T07:01:27.875Z,98675.60
2023-10-15T07:04:07.559Z,98680.80
2023-10-15T07:06:43.857Z,98692.40
2023-10-15T07:09:20.152Z,98688.80
2023-10-15T07:11:56.493Z,98696.00
2023-10-15T07:14:32.768Z,98703.00
2023-10-15T07:17:09.468Z,98704.20
2023-10-15T07:19:46.643Z,98697.40
2023-10-15T07:22:23.110Z,98702.80
2023-10-15T07:24:59.337Z,98707.20
2023-10-15T07:27:37.037Z,98705.60
2023-10-15T07:30:15.984Z,98706.20
2023-10-15T07:32:55.149Z,98706.20
2023-10-15T07:35:33.324Z,98715.80
2023-10-15T07:38:10.058Z,98710.20
2023-10-15T07:40:46.799Z,98716.80
2023-10-15T07:43:23.297Z,98711.40
2023-10-15T07:46:00.511Z,98708.00
2023-10-15T07:48:37.477Z,98713.40
2023-10-15T07:51:13.769Z,98715.80
2023-10-15T07:53:49.977Z,98710.20
2023-10-15T07:56:26.365Z,98715.20
2023-10-15T07:59:02.702Z,98709.20
2023-10-15T08:01:39.393Z,98707.40
2023-10-15T08:04:16.005Z,98703.00
2023-10-15T08:06:53.419Z,98694.00
2023-10-15T08:09:31.177Z,98693.40
2023-10-15T08:12:08.905Z,98693.60
2023-10-15T08:14:45.356Z,98685.20
2023-10-15T08:17:22.214Z,98692.20
2023-10-15T08:19:59.256Z,98692.40
2023-10-15T08:22:35.590Z,98696.00
2023-10-15T08:25:15.719Z,98696.80
2023-10-15T08:27:52.113Z,98699.40
2023-10-15T08:30:28.617Z,98701.20
2023-10-15T08:33:12.301Z,98701.00
2023-10-15T08:35:50.065Z,98700.00
2023-10-15T08:38:26.665Z,98699.80
2023-10-15T08:41:12.879Z,98700.80
2023-10-15T08:43:52.137Z,98698.40
2023-10-15T08:46:29.419Z,98700.80
2023-10-15T08:49:12.935Z,98699.40
2023-10-15T08:51:52.909Z,98706.40
2023-10-15T08:54:30.747Z,98701.40
2023-10-15T08:57:08.006Z,98708.80
2023-10-15T08:59:45.534Z,98707.20
2023-10-15T09:02:23.943Z,98702.40
2023-10-15T09:05:00.357Z,98702.20
2023-10-15T09:07:36.761Z,98709.00
2023-10-15T09:10:16.702Z,98703.60
2023-10-15T09:12:53.029Z,98705.60
2023-10-15T09:15:31.346Z,98703.40
2023-10-15T09:18:12.605Z,98697.20
2023-10-15T09:20:53.121Z,98696.60
2023-10-15T09:23:36.671Z,98699.40
2023-10-15T09:26:13.471Z,98696.80
2023-10-15T09:28:53.254Z,98694.80
2023-10-15T09:31:29.655Z,98692.40
2023-10-15T09:34:13.247Z,98694.60
2023-10-15T09:36:50.880Z,98689.80
2023-10-15T09:39:28.119Z,98686.60
2023-10-15T09:42:05.094Z,98680.60
2023-10-15T09:44:42.783Z,98682.60
2023-10-15T09:47:19.339Z,98678.80
2023-10-15T09:49:57.842Z,98677.20
2023-10-15T09:52:36.277Z,98676.80
2023-10-15T09:55:13.957Z,98678.80
2023-10-15T09:57:50.431Z,98680.40
2023-10-15T10:00:47.731Z,98679.00
2023-10-15T10:04:16.019Z,98679.20
2023-10-15T10:07:44.457Z,98678.60
2023-10-15T10:10:57.766Z,98679.60
2023-10-15T10:14:12.530Z,98674.00
2023-10-15T10:16:49.562Z,98664.00
2023-10-15T10:19:28.536Z,98661.00
2023-10-15T10:22:04.805Z,98664.80
2023-10-15T10:24:50.065Z,98662.00
2023-10-15T10:27:27.388Z,98662.20
2023-10-15T10:30:31.873Z,98657.00
2023-10-15T10:33:11.468Z,98658.60
2023-10-15T10:35:52.060Z,98656.80
2023-10-15T10:38:29.568Z,98655.80
2023-10-15T10:41:25.232Z,98654.00
2023-10-15T10:44:14.706Z,98647.80
2023-10-15T10:46:59.998Z,98647.00
2023-10-15T10:49:43.586Z,98644.80
2023-10-15T10:52:29.162Z,98646.80
2023-10-15T10:58:24.672Z,98628.60
2023-10-15T11:01:01.857Z,98622.60
2023-10-15T11:03:41.550Z,98625.60
2023-10-15T11:06:19.069Z,98630.60
2023-10-15T11:08:56.154Z,98633.40
2023-10-15T11:11:33.424Z,98629.80
2023-10-15T11:14:14.193Z,98632.00
2023-10-15T11:16:52.170Z,98631.60
2023-10-15T11:19:31.278Z,98630.60
2023-10-15T11:22:08.016Z,98634.00
2023-10-15T11:24:46.207Z,98628.00
2023-10-15T11:27:24.426Z,98623.80
2023-10-15T11:30:01.269Z,98625.00
2023-10-15T11:32:37.869Z,98622.60
2023-10-15T11:35:18.892Z,98617.20
2023-10-15T11:37:57.092Z,98624.20
2023-10-15T11:40:33.635Z,98624.40
2023-10-15T11:43:19.613Z,98620.80
2023-10-15T11:46:09.060Z,98616.20
2023-10-15T11:48:45.770Z,98610.20
2023-10-15T11:51:23.383Z,98605.60
2023-10-15T11:54:03.517Z,98601.60
2023-10-15T11:56:42.537Z,98597.00
2023-10-15T11:59:18.998Z,98596.40
2023-10-15T12:01:55.828Z,98598.00
2023-10-15T12:04:32.261Z,98610.40
2023-10-15T12:07:17.267Z,98616.40
2023-10-15T12:09:53.725Z,98616.60
2023-10-15T12:12:30.163Z,98623.40
2023-10-15T12:15:08.837Z,98627.40
2023-10-15T12:17:45.062Z,98631.00
2023-10-15T12:20:21.413Z,98632.00
2023-10-15T12:22:58.171Z,98629.40
2023-10-15T12:25:39.771Z,98620.60
2023-10-15T12:28:16.565Z,98620.00
2023-10-15T12:30:55.126Z,98622.40
2023-10-15T12:33:35.208Z,98626.80
2023-10-15T12:36:12.667Z,98627.80
2023-10-15T12:38:49.371Z,98638.80
2023-10-15T12:41:27.614Z,98642.20
2023-10-15T12:44:10.859Z,98635.20
2023-10-15T12:46:47.263Z,98623.20
2023-10-15T12:49:23.614Z,98617.40
2023-10-15T12:52:00.260Z,98622.20
2023-10-15T12:54:36.472Z,98635.20
2023-10-15T12:57:13.352Z,98653.20
2023-10-15T12:59:49.732Z,98661.40
2023-10-15T13:02:26.115Z,98656.00
2023-10-15T13:05:04.244Z,98643.60
2023-10-15T13:07:43.239Z,98655.40
2023-10-15T13:10:20.809Z,98664.00
2023-10-15T13:12:57.791Z,98652.40
2023-10-15T13:15:34.059Z,98662.40
2023-10-15T13:18:11.424Z,98653.40
2023-10-15T13:20:48.435Z,98645.00
2023-10-15T13:23:26.941Z,98633.60
2023-10-15T13:26:06.441Z,98627.60
2023-10-15T13:28:44.492Z,98617.00
2023-10-15T13:31:20.904Z,98608.80
2023-10-15T13:33:57.404Z,98592.40
2023-10-15T13:36:33.661Z,98593.80
2023-10-15T13:39:19.909Z,98599.60
2023-10-15T13:41:57.168Z,98597.80
2023-10-15T13:44:33.682Z,98610.80
2023-10-15T13:47:11.558Z,98623.00
2023-10-15T13:49:47.854Z,98628.00
2023-10-15T13:52:24.207Z,98623.60
2023-10-15T13:55:00.437Z,98623.40
2023-10-15T13:57:38.579Z,98612.00
2023-10-15T14:00:20.865Z,98601.40
2023-10-15T14:02:58.907Z,98604.60
2023-10-15T14:05:37.502Z,98596.80
2023-10-15T14:08:16.223Z,98596.60
2023-10-15T14:10:53.330Z,98601.20
2023-10-15T14:13:29.812Z,98607.20
2023-10-15T14:16:06.543Z,98614.80
2023-10-15T14:18:44.603Z,98617.40
2023-10-15T14:21:21.339Z,98619.60
2023-10-15T14:23:57.704Z,98619.40
2023-10-15T14:26:33.977Z,98602.80
2023-10-15T14:29:10.757Z,98590.80
2023-10-15T14:31:47.491Z,98584.80
2023-10-15T14:34:24.140Z,98590.40
2023-10-15T14:37:02.041Z,98586.20
2023-10-15T14:39:38.840Z,98581.20
2023-10-15T14:42:17.548Z,98584.00
2023-10-15T14:44:55.563Z,98585.60
2023-10-15T14:47:32.013Z,98574.20
2023-10-15T14:50:11.860Z,98585.20
2023-10-15T14:52:48.600Z,98585.80
2023-10-15T14:55:25.066Z,98589.20
2023-10-15T14:58:01.253Z,98584.40
2023-10-15T15:00:37.725Z,98584.20
2023-10-15T15:03:21.854Z,98591.80
2023-10-15T15:05:58.481Z,98591.80
2023-10-15T15:08:34.675Z,98595.80
2023-10-15T15:11:11.790Z,98602.00
2023-10-15T15:13:48.098Z,98602.20
2023-10-15T15:16:24.683Z,98600.40
2023-10-15T15:19:01.134Z,98597.40
2023-10-15T15:21:39.116Z,98598.40
2023-10-15T15:24:18.605Z,98603.40
2023-10-15T15:26:55.301Z,98599.80
2023-10-15T15:29:31.681Z,98592.20
2023-10-15T15:32:08.712Z,98596.40
2023-10-15T15:34:46.409Z,98597.00
2023-10-15T15:37:22.920Z,98599.80
2023-10-15T15:40:00.377Z,98600.80
2023-10-15T15:42:38.735Z,98600.20
2023-10-15T15:45:16.991Z,98601.80
2023-10-15T15:47:55.249Z,98599.20
2023-10-15T15:50:32.193Z,98609.80
2023-10-15T15:53:08.952Z,98614.80
2023-10-15T15:55:45.555Z,98619.60
2023-10-15T15:58:22.966Z,98619.80
2023-10-15T16:00:59.308Z,98617.00
2023-10-15T16:03:49.940Z,98621.40
2023-10-15T16:06:29.424Z,98621.40
2023-10-15T16:09:10.694Z,98625.00
2023-10-15T16:11:47.801Z,98624.40
2023-10-15T16:14:24.866Z,98624.40
2023-10-15T16:17:01.978Z,98630.20
2023-10-15T16:19:38.648Z,98631.60
2023-10-15T16:22:14.877Z,98631.60
2023-10-15T16:25:04.147Z,98636.20
2023-10-15T16:27:42.723Z,98644.60
2023-10-15T16:30:20.772Z,98648.80
2023-10-15T16:32:57.901Z,98649.40
2023-10-15T16:35:34.653Z,98651.40
2023-10-15T16:38:11.141Z,98654.00
2023-10-15T16:40:47.699Z,98658.20
2023-10-15T16:43:24.226Z,98657.80
2023-10-15T16:46:01.862Z,98659.00
2023-10-15T16:48:39.099Z,98662.60
2023-10-15T16:51:25.318Z,98669.20
2023-10-15T16:54:03.594Z,98670.80
2023-10-15T16:56:40.219Z,98671.80
2023-10-15T16:59:17.257Z,98675.40
2023-10-15T17:01:53.715Z,98676.40
2023-10-15T17:04:30.404Z,98678.00
2023-10-15T17:07:06.784Z,98677.00
2023-10-15T17:09:43.186Z,98687.20
2023-10-15T17:12:19.712Z,98683.20
2023-10-15T17:14:56.158Z,98683.60
2023-10-15T17:17:32.905Z,98682.80
2023-10-15T17:20:12.705Z,98676.80
2023-10-15T17:22:49.560Z,98679.00
2023-10-15T17:25:25.757Z,98680.60
2023-10-15T17:28:02.240Z,98676.40
2023-10-15T17:30:39.737Z,98681.20
2023-10-15T17:33:16.380Z,98678.00
2023-10-15T17:35:52.926Z,98672.60
2023-10-15T17:38:29.892Z,98675.60
2023-10-15T17:41:07.106Z,98680.40
2023-10-15T17:43:45.449Z,98676.20
2023-10-15T17:46:21.780Z,98684.60
2023-10-15T17:48:58.433Z,98692.20
2023-10-15T17:51:34.871Z,98694.20
2023-10-15T17:54:12.220Z,98699.20
2023-10-15T17:56:48.555Z,98696.00
2023-10-15T17:59:25.263Z,98697.80
2023-10-15T18:02:02.218Z,98699.00
2023-10-15T18:04:38.843Z,98704.40
2023-10-15T18:07:17.295Z,98708.60
2023-10-15T18:09:54.647Z,98702.40
2023-10-15T18:12:31.771Z,98708.40
2023-10-15T18:15:12.049Z,98712.80
2023-10-15T18:17:48.844Z,98715.00
2023-10-15T18:20:25.551Z,98714.60
2023-10-15T18:23:02.123Z,98713.20
2023-10-15T18:25:39.893Z,98719.20
2023-10-15T18:28:16.490Z,98723.40
2023-10-15T18:30:54.237Z,98728.80
2023-10-15T18:33:30.893Z,98730.80
2023-10-15T18:36:08.597Z,98736.80
2023-10-15T18:38:45.298Z,98740.00
2023-10-15T18:41:22.608Z,98742.00
2023-10-15T18:43:59.856Z,98743.60
2023-10-15T18:46:36.716Z,98743.40
2023-10-15T18:49:13.698Z,98744.60
2023-10-15T18:51:50.576Z,98749.40
2023-10-15T18:54:27.487Z,98754.80
2023-10-15T18:57:04.719Z,98755.60
2023-10-15T18:59:41.723Z,98758.20
2023-10-15T19:02:18.729Z,98768.40
2023-10-15T19:04:55.234Z,98770.80
2023-10-15T19:07:31.671Z,98774.20
2023-10-15T19:10:10.756Z,98774.40
2023-10-15T19:12:49.898Z,98778.20
2023-10-15T19:15:26.614Z,98784.20
2023-10-15T19:18:03.861Z,98791.40
2023-10-15T19:20:45.643Z,98791.60
2023-10-15T19:23:22.286Z,98800.40
2023-10-15T19:26:08.492Z,98800.80
2023-10-15T19:28:45.106Z,98808.00
2023-10-15T19:31:23.165Z,98809.00
2023-10-15T19:34:00.645Z,98809.20
2023-10-15T19:36:37.983Z,98811.80
2023-10-15T19:39:17.055Z,98816.00
2023-10-15T19:41:54.170Z,98809.80
2023-10-15T19:44:31.253Z,98809.20
2023-10-15T19:47:07.945Z,98808.40
2023-10-15T19:49:44.978Z,98809.00
2023-10-15T19:52:21.280Z,98806.80
2023-10-15T19:54:57.715Z,98812.20
2023-10-15T19:57:35.421Z,98812.20
2023-10-15T20:00:21.003Z,98813.60
2023-10-15T20:02:58.094Z,98815.60
2023-10-15T20:05:34.849Z,98823.40
2023-10-15T20:08:12.889Z,98821.00
2023-10-15T20:10:51.390Z,98823.00
2023-10-15T20:13:27.962Z,98823.20
2023-10-15T20:16:04.467Z,98823.40
2023-10-15T20:18:41.209Z,98829.00
2023-10-15T20:21:17.815Z,98830.60
2023-10-15T20:23:54.102Z,98834.20
2023-10-15T20:26:30.511Z,98838.60
2023-10-15T20:29:07.803Z,98845.00
2023-10-15T20:31:44.904Z,98844.60
2023-10-15T20:34:21.335Z,98840.40
2023-10-15T20:36:57.816Z,98841.80
2023-10-15T20:39:34.188Z,98840.20
2023-10-15T20:42:11.230Z,98847.20
2023-10-15T20:44:49.914Z,98840.40
2023-10-15T20:47:27.987Z,98844.00
2023-10-15T20:50:08.882Z,98849.80
2023-10-15T20:52:47.287Z,98850.20
2023-10-15T20:55:23.574Z,98850.60
2023-10-15T20:57:59.871Z,98850.40
2023-10-15T21:00:38.095Z,98846.40
2023-10-15T21:03:14.450Z,98846.00
2023-10-15T21:05:50.952Z,98847.40
2023-10-15T21:08:27.639Z,98853.20
2023-10-15T21:11:05.036Z,98860.60
2023-10-15T21:13:41.748Z,98860.20
2023-10-15T21:16:18.096Z,98861.20
2023-10-15T21:18:55.972Z,98862.80
2023-10-15T21:21:33.204Z,98866.00
2023-10-15T21:24:14.349Z,98867.80
2023-10-15T21:26:51.699Z,98863.60
2023-10-15T21:29:30.791Z,98865.40
2023-10-15T21:32:07.713Z,98871.00
2023-10-15T21:34:44.029Z,98871.20
2023-10-15T21:37:20.465Z,98868.80
2023-10-15T21:39:57.044Z,98868.80
2023-10-15T21:42:34.910Z,98866.80
2023-10-15T21:45:13.980Z,98871.60
2023-10-15T21:47:50.635Z,98877.80
2023-10-15T21:50:27.777Z,98873.60
2023-10-15T21:53:04.058Z,98871.00
2023-10-15T21:55:41.715Z,98873.80
2023-10-15T21:58:18.070Z,98876.00
2023-10-15T22:00:57.635Z,98878.80
2023-10-15T22:03:34.628Z,98877.60
2023-10-15T22:06:11.049Z,98876.20
2023-10-15T22:08:47.324Z,98877.40
2023-10-15T22:11:25.760Z,98878.20
2023-10-15T22:14:03.057Z,98882.40
2023-10-15T22:16:40.001Z,98887.80
2023-10-15T22:19:19.304Z,98888.80
2023-10-15T22:21:56.156Z,98889.80
2023-10-15T22:24:32.397Z,98895.20
2023-10-15T22:27:14.966Z,98888.00
2023-10-15T22:29:52.642Z,98889.20
2023-10-15T22:32:30.793Z,98894.00
2023-10-15T22:35:07.945Z,98891.40
2023-10-15T22:37:45.684Z,98889.60
2023-10-15T22:40:25.589Z,98892.00
2023-10-15T22:43:01.941Z,98893.00
2023-10-15T22:45:38.803Z,98896.80
2023-10-15T22:48:17.215Z,98897.20
2023-10-15T22:50:54.635Z,98901.40
2023-10-15T22:53:31.287Z,98902.80
2023-10-15T22:56:07.972Z,98906.40
2023-10-15T22:58:45.328Z,98905.00
2023-10-15T23:01:28.490Z,98907.40
2023-10-15T23:04:05.761Z,98908.60
2023-10-15T23:06:42.786Z,98908.20
2023-10-15T23:09:19.586Z,98918.00
2023-10-15T23:12:02.079Z,98916.00
2023-10-15T23:14:41.521Z,98927.00
2023-10-15T23:17:19.052Z,98934.80
2023-10-15T23:20:00.781Z,98937.60
2023-10-15T23:22:37.187Z,98934.00
2023-10-15T23:25:16.138Z,98939.20
2023-10-15T23:27:58.395Z,98942.20
2023-10-15T23:30:35.173Z,98940.20
2023-10-15T23:33:12.032Z,98941.40
2023-10-15T23:35:48.325Z,98941.80
2023-10-15T23:38:26.333Z,98943.80
2023-10-15T23:41:02.601Z,98943.80
2023-10-15T23:43:39.068Z,98949.60
2023-10-15T23:46:17.185Z,98954.00
2023-10-15T23:49:00.808Z,98955.40
2023-10-15T23:51:37.283Z,98956.20
2023-10-15T23:54:16.147Z,98952.80
2023-10-15T23:56:52.679Z,98954.60
2023-10-15T23:59:29.055Z,98959.00
